sensor_id;sensor_type;location;lat;lon;timestamp;P1;durP1;ratioP1;P2;durP2;ratioP2
57023;SDS011;42916;54.346;18.562;2024-01-15T00:00:17;2.60;;;1.30;;
57023;SDS011;42916;54.346;18.562;2024-01-15T00:03:04;4.00;;;1.80;;
57023;SDS011;42916;54.346;18.562;2024-01-15T00:05:31;3.60;;;2.00;;
57023;SDS011;42916;54.346;18.562;2024-01-15T00:07:58;2.70;;;1.50;;
57023;SDS011;42916;54.346;18.562;2024-01-15T00:10:24;5.60;;;2.00;;
57023;SDS011;42916;54.346;18.562;2024-01-15T00:12:51;2.50;;;1.90;;
57023;SDS011;42916;54.346;18.562;2024-01-15T00:15:18;4.10;;;1.70;;
57023;SDS011;42916;54.346;18.562;2024-01-15T00:17:45;4.30;;;1.70;;
57023;SDS011;42916;54.346;18.562;2024-01-15T00:20:12;2.70;;;1.70;;
57023;SDS011;42916;54.346;18.562;2024-01-15T00:22:39;4.10;;;1.70;;
57023;SDS011;42916;54.346;18.562;2024-01-15T00:25:06;4.20;;;2.10;;
57023;SDS011;42916;54.346;18.562;2024-01-15T00:27:33;1.70;;;1.00;;
57023;SDS011;42916;54.346;18.562;2024-01-15T00:29:59;1.80;;;1.40;;
57023;SDS011;42916;54.346;18.562;2024-01-15T00:32:26;2.00;;;1.50;;
57023;SDS011;42916;54.346;18.562;2024-01-15T00:34:53;3.40;;;1.40;;
57023;SDS011;42916;54.346;18.562;2024-01-15T00:37:20;2.20;;;1.50;;
57023;SDS011;42916;54.346;18.562;2024-01-15T00:39:47;2.30;;;1.50;;
57023;SDS011;42916;54.346;18.562;2024-01-15T00:42:14;2.00;;;1.30;;
57023;SDS011;42916;54.346;18.562;2024-01-15T00:44:41;2.00;;;1.40;;
57023;SDS011;42916;54.346;18.562;2024-01-15T00:47:09;3.00;;;1.60;;
57023;SDS011;42916;54.346;18.562;2024-01-15T00:49:36;2.70;;;1.60;;
57023;SDS011;42916;54.346;18.562;2024-01-15T00:52:03;2.50;;;1.50;;
57023;SDS011;42916;54.346;18.562;2024-01-15T00:54:30;2.70;;;1.50;;
57023;SDS011;42916;54.346;18.562;2024-01-15T00:56:57;3.40;;;1.40;;
57023;SDS011;42916;54.346;18.562;2024-01-15T00:59:24;3.20;;;1.40;;
57023;SDS011;42916;54.346;18.562;2024-01-15T01:01:50;2.60;;;1.30;;
57023;SDS011;42916;54.346;18.562;2024-01-15T01:04:17;2.10;;;1.20;;
57023;SDS011;42916;54.346;18.562;2024-01-15T01:06:44;3.00;;;1.40;;
57023;SDS011;42916;54.346;18.562;2024-01-15T01:09:11;2.00;;;1.30;;
57023;SDS011;42916;54.346;18.562;2024-01-15T01:11:38;1.30;;;0.80;;
57023;SDS011;42916;54.346;18.562;2024-01-15T01:14:05;4.20;;;1.70;;
57023;SDS011;42916;54.346;18.562;2024-01-15T01:16:32;2.20;;;1.30;;
57023;SDS011;42916;54.346;18.562;2024-01-15T01:19:05;4.20;;;1.00;;
57023;SDS011;42916;54.346;18.562;2024-01-15T01:21:33;2.10;;;1.30;;
57023;SDS011;42916;54.346;18.562;2024-01-15T01:24:00;2.20;;;1.30;;
57023;SDS011;42916;54.346;18.562;2024-01-15T01:26:27;2.80;;;1.50;;
57023;SDS011;42916;54.346;18.562;2024-01-15T01:28:54;3.70;;;1.90;;
57023;SDS011;42916;54.346;18.562;2024-01-15T01:31:21;2.40;;;1.90;;
57023;SDS011;42916;54.346;18.562;2024-01-15T01:33:47;3.20;;;2.00;;
57023;SDS011;42916;54.346;18.562;2024-01-15T01:36:16;4.80;;;2.30;;
57023;SDS011;42916;54.346;18.562;2024-01-15T01:38:43;2.50;;;2.00;;
57023;SDS011;42916;54.346;18.562;2024-01-15T01:41:10;4.10;;;2.20;;
57023;SDS011;42916;54.346;18.562;2024-01-15T01:43:37;2.70;;;2.10;;
57023;SDS011;42916;54.346;18.562;2024-01-15T01:46:04;2.30;;;1.20;;
57023;SDS011;42916;54.346;18.562;2024-01-15T01:48:31;2.40;;;2.10;;
57023;SDS011;42916;54.346;18.562;2024-01-15T01:50:59;4.00;;;2.70;;
57023;SDS011;42916;54.346;18.562;2024-01-15T01:53:28;4.10;;;2.50;;
57023;SDS011;42916;54.346;18.562;2024-01-15T01:55:56;2.80;;;2.00;;
57023;SDS011;42916;54.346;18.562;2024-01-15T01:58:24;2.10;;;1.90;;
57023;SDS011;42916;54.346;18.562;2024-01-15T02:00:52;2.40;;;2.00;;
57023;SDS011;42916;54.346;18.562;2024-01-15T02:03:20;2.80;;;1.90;;
57023;SDS011;42916;54.346;18.562;2024-01-15T02:05:47;3.40;;;2.00;;
57023;SDS011;42916;54.346;18.562;2024-01-15T02:08:16;3.40;;;2.20;;
57023;SDS011;42916;54.346;18.562;2024-01-15T02:10:43;1.70;;;1.60;;
57023;SDS011;42916;54.346;18.562;2024-01-15T02:13:11;2.60;;;1.40;;
57023;SDS011;42916;54.346;18.562;2024-01-15T02:15:39;2.40;;;1.70;;
57023;SDS011;42916;54.346;18.562;2024-01-15T02:18:06;2.70;;;2.10;;
57023;SDS011;42916;54.346;18.562;2024-01-15T02:20:34;4.90;;;1.80;;
57023;SDS011;42916;54.346;18.562;2024-01-15T02:23:07;2.50;;;1.90;;
57023;SDS011;42916;54.346;18.562;2024-01-15T02:25:35;2.40;;;2.20;;
57023;SDS011;42916;54.346;18.562;2024-01-15T02:28:04;2.50;;;2.20;;
57023;SDS011;42916;54.346;18.562;2024-01-15T02:30:32;3.30;;;2.30;;
57023;SDS011;42916;54.346;18.562;2024-01-15T02:33:00;2.80;;;1.90;;
57023;SDS011;42916;54.346;18.562;2024-01-15T02:35:27;3.40;;;2.60;;
57023;SDS011;42916;54.346;18.562;2024-01-15T02:37:54;3.20;;;2.10;;
57023;SDS011;42916;54.346;18.562;2024-01-15T02:40:21;2.80;;;1.70;;
57023;SDS011;42916;54.346;18.562;2024-01-15T02:42:48;3.30;;;1.80;;
57023;SDS011;42916;54.346;18.562;2024-01-15T02:47:44;1.80;;;1.60;;
57023;SDS011;42916;54.346;18.562;2024-01-15T02:50:11;3.30;;;1.90;;
57023;SDS011;42916;54.346;18.562;2024-01-15T02:52:38;2.30;;;2.10;;
57023;SDS011;42916;54.346;18.562;2024-01-15T02:55:05;2.40;;;2.20;;
57023;SDS011;42916;54.346;18.562;2024-01-15T02:57:32;3.30;;;2.10;;
57023;SDS011;42916;54.346;18.562;2024-01-15T02:59:59;2.30;;;2.10;;
57023;SDS011;42916;54.346;18.562;2024-01-15T03:02:26;2.70;;;2.20;;
57023;SDS011;42916;54.346;18.562;2024-01-15T03:04:53;2.30;;;1.90;;
57023;SDS011;42916;54.346;18.562;2024-01-15T03:07:20;2.30;;;1.80;;
57023;SDS011;42916;54.346;18.562;2024-01-15T03:09:47;3.50;;;2.20;;
57023;SDS011;42916;54.346;18.562;2024-01-15T03:12:13;2.50;;;2.30;;
57023;SDS011;42916;54.346;18.562;2024-01-15T03:14:40;2.80;;;2.40;;
57023;SDS011;42916;54.346;18.562;2024-01-15T03:17:07;3.10;;;2.40;;
57023;SDS011;42916;54.346;18.562;2024-01-15T03:19:36;4.10;;;1.90;;
57023;SDS011;42916;54.346;18.562;2024-01-15T03:22:03;2.30;;;1.70;;
57023;SDS011;42916;54.346;18.562;2024-01-15T03:24:31;2.10;;;1.80;;
57023;SDS011;42916;54.346;18.562;2024-01-15T03:26:58;2.00;;;1.80;;
57023;SDS011;42916;54.346;18.562;2024-01-15T03:29:25;3.00;;;2.00;;
57023;SDS011;42916;54.346;18.562;2024-01-15T03:31:52;4.00;;;2.90;;
57023;SDS011;42916;54.346;18.562;2024-01-15T03:34:19;2.50;;;2.30;;
57023;SDS011;42916;54.346;18.562;2024-01-15T03:36:46;2.20;;;1.80;;
57023;SDS011;42916;54.346;18.562;2024-01-15T03:39:13;2.80;;;1.80;;
57023;SDS011;42916;54.346;18.562;2024-01-15T03:41:40;1.80;;;1.60;;
57023;SDS011;42916;54.346;18.562;2024-01-15T03:44:07;3.80;;;2.10;;
57023;SDS011;42916;54.346;18.562;2024-01-15T03:46:33;1.80;;;1.70;;
57023;SDS011;42916;54.346;18.562;2024-01-15T03:49:00;4.40;;;2.60;;
57023;SDS011;42916;54.346;18.562;2024-01-15T03:51:27;2.50;;;2.10;;
57023;SDS011;42916;54.346;18.562;2024-01-15T03:53:54;2.20;;;2.00;;
57023;SDS011;42916;54.346;18.562;2024-01-15T03:56:20;3.40;;;2.00;;
57023;SDS011;42916;54.346;18.562;2024-01-15T03:58:47;3.40;;;2.00;;
57023;SDS011;42916;54.346;18.562;2024-01-15T04:01:15;3.40;;;2.40;;
57023;SDS011;42916;54.346;18.562;2024-01-15T04:03:42;2.20;;;1.80;;
57023;SDS011;42916;54.346;18.562;2024-01-15T04:06:09;3.60;;;2.20;;
57023;SDS011;42916;54.346;18.562;2024-01-15T04:08:36;2.90;;;2.30;;
57023;SDS011;42916;54.346;18.562;2024-01-15T04:11:02;2.60;;;2.00;;
57023;SDS011;42916;54.346;18.562;2024-01-15T04:13:32;3.00;;;2.40;;
57023;SDS011;42916;54.346;18.562;2024-01-15T04:15:59;2.50;;;1.80;;
57023;SDS011;42916;54.346;18.562;2024-01-15T04:18:27;2.80;;;1.90;;
57023;SDS011;42916;54.346;18.562;2024-01-15T04:20:53;3.30;;;2.30;;
57023;SDS011;42916;54.346;18.562;2024-01-15T04:23:20;2.60;;;2.20;;
57023;SDS011;42916;54.346;18.562;2024-01-15T04:25:47;2.80;;;2.50;;
57023;SDS011;42916;54.346;18.562;2024-01-15T04:28:16;4.00;;;2.30;;
57023;SDS011;42916;54.346;18.562;2024-01-15T04:30:42;3.60;;;2.60;;
57023;SDS011;42916;54.346;18.562;2024-01-15T04:33:09;2.90;;;2.20;;
57023;SDS011;42916;54.346;18.562;2024-01-15T04:35:37;2.10;;;1.80;;
57023;SDS011;42916;54.346;18.562;2024-01-15T04:38:04;2.70;;;1.80;;
57023;SDS011;42916;54.346;18.562;2024-01-15T04:40:31;2.30;;;1.90;;
57023;SDS011;42916;54.346;18.562;2024-01-15T04:42:58;2.90;;;2.30;;
57023;SDS011;42916;54.346;18.562;2024-01-15T04:45:24;3.00;;;2.00;;
57023;SDS011;42916;54.346;18.562;2024-01-15T04:47:55;3.00;;;1.90;;
57023;SDS011;42916;54.346;18.562;2024-01-15T04:50:24;3.40;;;1.80;;
57023;SDS011;42916;54.346;18.562;2024-01-15T04:52:51;2.60;;;2.10;;
57023;SDS011;42916;54.346;18.562;2024-01-15T04:55:18;2.30;;;1.60;;
57023;SDS011;42916;54.346;18.562;2024-01-15T04:57:45;1.60;;;1.20;;
57023;SDS011;42916;54.346;18.562;2024-01-15T05:00:11;3.70;;;2.40;;
57023;SDS011;42916;54.346;18.562;2024-01-15T05:02:39;2.20;;;1.80;;
57023;SDS011;42916;54.346;18.562;2024-01-15T05:05:06;2.60;;;2.00;;
57023;SDS011;42916;54.346;18.562;2024-01-15T05:07:33;2.50;;;2.20;;
57023;SDS011;42916;54.346;18.562;2024-01-15T05:10:00;2.90;;;2.10;;
57023;SDS011;42916;54.346;18.562;2024-01-15T05:12:27;3.50;;;2.00;;
57023;SDS011;42916;54.346;18.562;2024-01-15T05:14:53;2.30;;;2.10;;
57023;SDS011;42916;54.346;18.562;2024-01-15T05:17:20;2.50;;;1.60;;
57023;SDS011;42916;54.346;18.562;2024-01-15T05:19:47;2.80;;;1.70;;
57023;SDS011;42916;54.346;18.562;2024-01-15T05:22:14;2.20;;;2.00;;
57023;SDS011;42916;54.346;18.562;2024-01-15T05:24:41;3.80;;;2.20;;
57023;SDS011;42916;54.346;18.562;2024-01-15T05:27:07;3.80;;;2.10;;
57023;SDS011;42916;54.346;18.562;2024-01-15T05:29:34;4.20;;;2.40;;
57023;SDS011;42916;54.346;18.562;2024-01-15T05:32:01;2.90;;;1.90;;
57023;SDS011;42916;54.346;18.562;2024-01-15T05:34:28;2.90;;;2.10;;
57023;SDS011;42916;54.346;18.562;2024-01-15T05:36:55;4.20;;;2.50;;
57023;SDS011;42916;54.346;18.562;2024-01-15T05:39:21;3.40;;;2.70;;
57023;SDS011;42916;54.346;18.562;2024-01-15T05:41:48;5.20;;;2.40;;
57023;SDS011;42916;54.346;18.562;2024-01-15T05:44:16;4.60;;;2.30;;
57023;SDS011;42916;54.346;18.562;2024-01-15T05:46:43;1.70;;;1.60;;
57023;SDS011;42916;54.346;18.562;2024-01-15T05:49:09;1.90;;;1.60;;
57023;SDS011;42916;54.346;18.562;2024-01-15T05:51:36;3.00;;;1.90;;
57023;SDS011;42916;54.346;18.562;2024-01-15T05:54:03;2.60;;;1.40;;
57023;SDS011;42916;54.346;18.562;2024-01-15T05:56:30;3.90;;;1.50;;
57023;SDS011;42916;54.346;18.562;2024-01-15T05:58:57;1.80;;;1.10;;
57023;SDS011;42916;54.346;18.562;2024-01-15T06:01:24;4.40;;;1.60;;
57023;SDS011;42916;54.346;18.562;2024-01-15T06:03:50;3.30;;;1.50;;
57023;SDS011;42916;54.346;18.562;2024-01-15T06:06:17;2.80;;;1.70;;
57023;SDS011;42916;54.346;18.562;2024-01-15T06:08:44;4.10;;;1.40;;
57023;SDS011;42916;54.346;18.562;2024-01-15T06:11:11;3.40;;;1.50;;
57023;SDS011;42916;54.346;18.562;2024-01-15T06:13:38;3.10;;;1.60;;
57023;SDS011;42916;54.346;18.562;2024-01-15T06:16:11;1.90;;;1.40;;
57023;SDS011;42916;54.346;18.562;2024-01-15T06:18:42;1.40;;;0.90;;
57023;SDS011;42916;54.346;18.562;2024-01-15T06:21:09;6.30;;;1.60;;
57023;SDS011;42916;54.346;18.562;2024-01-15T06:23:39;2.90;;;1.90;;
57023;SDS011;42916;54.346;18.562;2024-01-15T06:26:05;3.00;;;2.50;;
57023;SDS011;42916;54.346;18.562;2024-01-15T06:28:32;3.90;;;1.60;;
57023;SDS011;42916;54.346;18.562;2024-01-15T06:30:59;3.70;;;1.50;;
57023;SDS011;42916;54.346;18.562;2024-01-15T06:33:26;9.30;;;1.50;;
57023;SDS011;42916;54.346;18.562;2024-01-15T06:35:53;4.80;;;1.50;;
57023;SDS011;42916;54.346;18.562;2024-01-15T06:38:19;5.00;;;1.60;;
57023;SDS011;42916;54.346;18.562;2024-01-15T06:40:46;4.10;;;1.50;;
57023;SDS011;42916;54.346;18.562;2024-01-15T06:43:17;3.90;;;1.20;;
57023;SDS011;42916;54.346;18.562;2024-01-15T06:45:44;4.80;;;1.40;;
57023;SDS011;42916;54.346;18.562;2024-01-15T06:48:11;9.10;;;1.60;;
57023;SDS011;42916;54.346;18.562;2024-01-15T06:50:40;5.20;;;1.60;;
57023;SDS011;42916;54.346;18.562;2024-01-15T06:53:09;5.30;;;1.70;;
57023;SDS011;42916;54.346;18.562;2024-01-15T06:55:37;7.10;;;2.10;;
57023;SDS011;42916;54.346;18.562;2024-01-15T06:58:05;3.40;;;1.50;;
57023;SDS011;42916;54.346;18.562;2024-01-15T07:00:32;15.50;;;1.90;;
57023;SDS011;42916;54.346;18.562;2024-01-15T07:02:59;4.20;;;1.40;;
57023;SDS011;42916;54.346;18.562;2024-01-15T07:05:27;3.50;;;1.20;;
57023;SDS011;42916;54.346;18.562;2024-01-15T07:07:54;3.90;;;1.70;;
57023;SDS011;42916;54.346;18.562;2024-01-15T07:10:20;5.50;;;1.60;;
57023;SDS011;42916;54.346;18.562;2024-01-15T07:12:47;2.60;;;1.70;;
57023;SDS011;42916;54.346;18.562;2024-01-15T07:15:16;5.50;;;1.80;;
57023;SDS011;42916;54.346;18.562;2024-01-15T07:17:43;2.90;;;1.70;;
57023;SDS011;42916;54.346;18.562;2024-01-15T07:20:10;6.60;;;2.60;;
57023;SDS011;42916;54.346;18.562;2024-01-15T07:22:37;4.10;;;2.30;;
57023;SDS011;42916;54.346;18.562;2024-01-15T07:25:05;5.80;;;2.10;;
57023;SDS011;42916;54.346;18.562;2024-01-15T07:27:33;4.60;;;1.60;;
57023;SDS011;42916;54.346;18.562;2024-01-15T07:29:59;2.50;;;1.80;;
57023;SDS011;42916;54.346;18.562;2024-01-15T07:32:26;5.10;;;2.40;;
57023;SDS011;42916;54.346;18.562;2024-01-15T07:34:53;8.60;;;2.40;;
57023;SDS011;42916;54.346;18.562;2024-01-15T07:37:20;5.00;;;1.90;;
57023;SDS011;42916;54.346;18.562;2024-01-15T07:39:47;5.50;;;2.50;;
57023;SDS011;42916;54.346;18.562;2024-01-15T07:42:13;5.00;;;1.90;;
57023;SDS011;42916;54.346;18.562;2024-01-15T07:44:40;5.20;;;2.00;;
57023;SDS011;42916;54.346;18.562;2024-01-15T07:47:07;5.80;;;1.90;;
57023;SDS011;42916;54.346;18.562;2024-01-15T07:49:35;5.10;;;2.00;;
57023;SDS011;42916;54.346;18.562;2024-01-15T07:52:02;4.90;;;2.10;;
57023;SDS011;42916;54.346;18.562;2024-01-15T07:54:31;5.50;;;2.10;;
57023;SDS011;42916;54.346;18.562;2024-01-15T07:56:59;7.00;;;1.90;;
57023;SDS011;42916;54.346;18.562;2024-01-15T07:59:27;6.40;;;2.00;;
57023;SDS011;42916;54.346;18.562;2024-01-15T08:01:54;6.50;;;2.30;;
57023;SDS011;42916;54.346;18.562;2024-01-15T08:04:21;5.00;;;2.20;;
57023;SDS011;42916;54.346;18.562;2024-01-15T08:06:51;4.50;;;1.90;;
57023;SDS011;42916;54.346;18.562;2024-01-15T08:09:17;4.30;;;1.50;;
57023;SDS011;42916;54.346;18.562;2024-01-15T08:11:44;4.40;;;1.70;;
57023;SDS011;42916;54.346;18.562;2024-01-15T08:14:11;3.40;;;1.90;;
57023;SDS011;42916;54.346;18.562;2024-01-15T08:16:39;3.40;;;1.80;;
57023;SDS011;42916;54.346;18.562;2024-01-15T08:19:06;3.60;;;1.90;;
57023;SDS011;42916;54.346;18.562;2024-01-15T08:21:33;3.90;;;1.70;;
57023;SDS011;42916;54.346;18.562;2024-01-15T08:24:01;3.00;;;1.60;;
57023;SDS011;42916;54.346;18.562;2024-01-15T08:26:29;3.30;;;1.70;;
57023;SDS011;42916;54.346;18.562;2024-01-15T08:28:56;4.70;;;1.80;;
57023;SDS011;42916;54.346;18.562;2024-01-15T08:31:23;3.00;;;1.50;;
57023;SDS011;42916;54.346;18.562;2024-01-15T08:33:50;4.20;;;1.90;;
57023;SDS011;42916;54.346;18.562;2024-01-15T08:36:18;3.80;;;1.60;;
57023;SDS011;42916;54.346;18.562;2024-01-15T08:38:45;4.60;;;1.80;;
57023;SDS011;42916;54.346;18.562;2024-01-15T08:41:12;3.20;;;1.60;;
57023;SDS011;42916;54.346;18.562;2024-01-15T08:43:40;3.20;;;1.50;;
57023;SDS011;42916;54.346;18.562;2024-01-15T08:46:06;4.10;;;1.80;;
57023;SDS011;42916;54.346;18.562;2024-01-15T08:48:33;4.30;;;1.60;;
57023;SDS011;42916;54.346;18.562;2024-01-15T08:51:00;4.40;;;2.00;;
57023;SDS011;42916;54.346;18.562;2024-01-15T08:53:27;2.60;;;1.60;;
57023;SDS011;42916;54.346;18.562;2024-01-15T08:55:54;4.60;;;1.80;;
57023;SDS011;42916;54.346;18.562;2024-01-15T08:58:22;3.90;;;1.90;;
57023;SDS011;42916;54.346;18.562;2024-01-15T09:00:50;3.90;;;2.00;;
57023;SDS011;42916;54.346;18.562;2024-01-15T09:03:17;3.10;;;1.70;;
57023;SDS011;42916;54.346;18.562;2024-01-15T09:05:44;6.60;;;2.00;;
57023;SDS011;42916;54.346;18.562;2024-01-15T09:08:11;4.40;;;2.10;;
57023;SDS011;42916;54.346;18.562;2024-01-15T09:10:38;6.50;;;2.20;;
57023;SDS011;42916;54.346;18.562;2024-01-15T09:13:05;4.10;;;1.90;;
57023;SDS011;42916;54.346;18.562;2024-01-15T09:15:32;4.50;;;2.10;;
57023;SDS011;42916;54.346;18.562;2024-01-15T09:17:59;3.10;;;1.30;;
57023;SDS011;42916;54.346;18.562;2024-01-15T09:20:26;6.80;;;2.10;;
57023;SDS011;42916;54.346;18.562;2024-01-15T09:22:54;3.20;;;1.50;;
57023;SDS011;42916;54.346;18.562;2024-01-15T09:25:21;3.60;;;1.70;;
57023;SDS011;42916;54.346;18.562;2024-01-15T09:27:47;4.20;;;1.40;;
57023;SDS011;42916;54.346;18.562;2024-01-15T09:30:17;5.00;;;1.60;;
57023;SDS011;42916;54.346;18.562;2024-01-15T09:32:44;3.90;;;1.60;;
57023;SDS011;42916;54.346;18.562;2024-01-15T09:35:10;3.10;;;1.50;;
57023;SDS011;42916;54.346;18.562;2024-01-15T09:37:38;2.70;;;1.50;;
57023;SDS011;42916;54.346;18.562;2024-01-15T09:40:06;2.60;;;2.10;;
57023;SDS011;42916;54.346;18.562;2024-01-15T09:42:35;4.50;;;1.80;;
57023;SDS011;42916;54.346;18.562;2024-01-15T09:45:02;3.20;;;1.10;;
57023;SDS011;42916;54.346;18.562;2024-01-15T09:47:30;2.30;;;1.60;;
57023;SDS011;42916;54.346;18.562;2024-01-15T09:49:57;7.20;;;2.20;;
57023;SDS011;42916;54.346;18.562;2024-01-15T09:52:24;4.20;;;1.30;;
57023;SDS011;42916;54.346;18.562;2024-01-15T09:54:53;2.60;;;1.10;;
57023;SDS011;42916;54.346;18.562;2024-01-15T09:57:20;2.60;;;1.00;;
57023;SDS011;42916;54.346;18.562;2024-01-15T09:59:47;2.30;;;1.30;;
57023;SDS011;42916;54.346;18.562;2024-01-15T10:02:16;2.90;;;1.30;;
57023;SDS011;42916;54.346;18.562;2024-01-15T10:04:45;2.60;;;1.20;;
57023;SDS011;42916;54.346;18.562;2024-01-15T10:07:15;4.10;;;1.50;;
57023;SDS011;42916;54.346;18.562;2024-01-15T10:09:46;3.40;;;1.40;;
57023;SDS011;42916;54.346;18.562;2024-01-15T10:12:13;3.70;;;1.20;;
57023;SDS011;42916;54.346;18.562;2024-01-15T10:14:40;3.90;;;0.90;;
57023;SDS011;42916;54.346;18.562;2024-01-15T10:17:13;2.10;;;1.30;;
57023;SDS011;42916;54.346;18.562;2024-01-15T10:19:46;2.60;;;1.00;;
57023;SDS011;42916;54.346;18.562;2024-01-15T10:22:14;3.10;;;1.00;;
57023;SDS011;42916;54.346;18.562;2024-01-15T10:24:42;2.70;;;1.50;;
57023;SDS011;42916;54.346;18.562;2024-01-15T10:27:09;5.00;;;2.10;;
57023;SDS011;42916;54.346;18.562;2024-01-15T10:29:37;5.00;;;1.90;;
57023;SDS011;42916;54.346;18.562;2024-01-15T10:32:06;4.30;;;1.60;;
57023;SDS011;42916;54.346;18.562;2024-01-15T10:34:37;2.20;;;1.10;;
57023;SDS011;42916;54.346;18.562;2024-01-15T10:37:08;2.00;;;1.20;;
57023;SDS011;42916;54.346;18.562;2024-01-15T10:39:35;4.60;;;1.10;;
57023;SDS011;42916;54.346;18.562;2024-01-15T10:42:03;2.40;;;1.50;;
57023;SDS011;42916;54.346;18.562;2024-01-15T10:44:30;3.80;;;1.10;;
57023;SDS011;42916;54.346;18.562;2024-01-15T10:46:57;3.20;;;1.70;;
57023;SDS011;42916;54.346;18.562;2024-01-15T10:49:24;4.50;;;1.30;;
57023;SDS011;42916;54.346;18.562;2024-01-15T10:51:53;1.20;;;1.00;;
57023;SDS011;42916;54.346;18.562;2024-01-15T10:54:21;1.90;;;0.90;;
57023;SDS011;42916;54.346;18.562;2024-01-15T10:56:50;2.70;;;1.20;;
57023;SDS011;42916;54.346;18.562;2024-01-15T10:59:19;2.90;;;1.00;;
57023;SDS011;42916;54.346;18.562;2024-01-15T11:01:48;3.20;;;1.10;;
57023;SDS011;42916;54.346;18.562;2024-01-15T11:04:17;3.70;;;1.30;;
57023;SDS011;42916;54.346;18.562;2024-01-15T11:06:45;3.40;;;1.30;;
57023;SDS011;42916;54.346;18.562;2024-01-15T11:09:13;2.40;;;1.00;;
57023;SDS011;42916;54.346;18.562;2024-01-15T11:11:44;5.60;;;1.20;;
57023;SDS011;42916;54.346;18.562;2024-01-15T11:17:05;2.30;;;0.90;;
57023;SDS011;42916;54.346;18.562;2024-01-15T11:22:09;2.00;;;1.10;;
57023;SDS011;42916;54.346;18.562;2024-01-15T11:24:39;2.00;;;0.80;;
57023;SDS011;42916;54.346;18.562;2024-01-15T11:27:07;4.00;;;1.40;;
57023;SDS011;42916;54.346;18.562;2024-01-15T11:29:36;4.70;;;1.30;;
57023;SDS011;42916;54.346;18.562;2024-01-15T11:32:04;3.80;;;2.00;;
57023;SDS011;42916;54.346;18.562;2024-01-15T11:37:29;4.40;;;1.60;;
57023;SDS011;42916;54.346;18.562;2024-01-15T11:42:59;3.50;;;1.70;;
57023;SDS011;42916;54.346;18.562;2024-01-15T11:45:26;1.90;;;1.00;;
57023;SDS011;42916;54.346;18.562;2024-01-15T11:50:42;1.60;;;1.00;;
57023;SDS011;42916;54.346;18.562;2024-01-15T11:53:14;5.00;;;1.20;;
57023;SDS011;42916;54.346;18.562;2024-01-15T11:55:45;3.20;;;1.30;;
57023;SDS011;42916;54.346;18.562;2024-01-15T11:58:12;2.50;;;1.10;;
57023;SDS011;42916;54.346;18.562;2024-01-15T12:00:40;2.20;;;1.20;;
57023;SDS011;42916;54.346;18.562;2024-01-15T12:03:09;5.00;;;1.70;;
57023;SDS011;42916;54.346;18.562;2024-01-15T12:05:36;3.40;;;1.20;;
57023;SDS011;42916;54.346;18.562;2024-01-15T12:08:04;5.80;;;1.60;;
57023;SDS011;42916;54.346;18.562;2024-01-15T12:10:40;1.00;;;0.80;;
57023;SDS011;42916;54.346;18.562;2024-01-15T12:15:39;2.60;;;1.10;;
57023;SDS011;42916;54.346;18.562;2024-01-15T12:18:08;6.40;;;1.80;;
57023;SDS011;42916;54.346;18.562;2024-01-15T12:20:36;6.20;;;1.80;;
57023;SDS011;42916;54.346;18.562;2024-01-15T12:23:03;2.70;;;1.60;;
57023;SDS011;42916;54.346;18.562;2024-01-15T12:25:31;4.40;;;1.50;;
57023;SDS011;42916;54.346;18.562;2024-01-15T12:27:59;5.00;;;1.40;;
57023;SDS011;42916;54.346;18.562;2024-01-15T12:30:28;2.40;;;1.00;;
57023;SDS011;42916;54.346;18.562;2024-01-15T12:32:56;4.20;;;1.10;;
57023;SDS011;42916;54.346;18.562;2024-01-15T12:35:23;1.90;;;1.00;;
57023;SDS011;42916;54.346;18.562;2024-01-15T12:37:54;2.20;;;0.70;;
57023;SDS011;42916;54.346;18.562;2024-01-15T12:40:22;2.20;;;1.00;;
57023;SDS011;42916;54.346;18.562;2024-01-15T12:42:50;4.10;;;1.40;;
57023;SDS011;42916;54.346;18.562;2024-01-15T12:45:18;4.10;;;1.20;;
57023;SDS011;42916;54.346;18.562;2024-01-15T12:47:45;2.60;;;1.20;;
57023;SDS011;42916;54.346;18.562;2024-01-15T12:50:13;3.00;;;1.20;;
57023;SDS011;42916;54.346;18.562;2024-01-15T12:52:40;3.90;;;1.40;;
57023;SDS011;42916;54.346;18.562;2024-01-15T12:55:08;3.50;;;1.30;;
57023;SDS011;42916;54.346;18.562;2024-01-15T12:57:36;1.60;;;1.10;;
57023;SDS011;42916;54.346;18.562;2024-01-15T13:00:04;1.60;;;0.90;;
57023;SDS011;42916;54.346;18.562;2024-01-15T13:02:34;1.80;;;1.20;;
57023;SDS011;42916;54.346;18.562;2024-01-15T13:05:01;2.00;;;1.10;;
57023;SDS011;42916;54.346;18.562;2024-01-15T13:09:57;2.50;;;1.10;;
57023;SDS011;42916;54.346;18.562;2024-01-15T13:12:24;3.00;;;1.00;;
57023;SDS011;42916;54.346;18.562;2024-01-15T13:14:51;1.80;;;1.10;;
57023;SDS011;42916;54.346;18.562;2024-01-15T13:17:18;2.30;;;1.00;;
57023;SDS011;42916;54.346;18.562;2024-01-15T13:19:45;2.80;;;1.40;;
57023;SDS011;42916;54.346;18.562;2024-01-15T13:22:12;2.30;;;1.40;;
57023;SDS011;42916;54.346;18.562;2024-01-15T13:24:40;1.60;;;1.20;;
57023;SDS011;42916;54.346;18.562;2024-01-15T13:27:07;1.90;;;1.00;;
57023;SDS011;42916;54.346;18.562;2024-01-15T13:29:34;5.20;;;2.00;;
57023;SDS011;42916;54.346;18.562;2024-01-15T13:32:01;3.60;;;1.40;;
57023;SDS011;42916;54.346;18.562;2024-01-15T13:34:28;2.50;;;1.40;;
57023;SDS011;42916;54.346;18.562;2024-01-15T13:36:55;2.20;;;1.50;;
57023;SDS011;42916;54.346;18.562;2024-01-15T13:39:22;3.90;;;1.50;;
57023;SDS011;42916;54.346;18.562;2024-01-15T13:41:49;2.70;;;1.60;;
57023;SDS011;42916;54.346;18.562;2024-01-15T13:44:16;3.10;;;1.50;;
57023;SDS011;42916;54.346;18.562;2024-01-15T13:46:43;4.00;;;1.70;;
57023;SDS011;42916;54.346;18.562;2024-01-15T13:49:10;1.50;;;1.20;;
57023;SDS011;42916;54.346;18.562;2024-01-15T13:51:37;3.50;;;1.70;;
57023;SDS011;42916;54.346;18.562;2024-01-15T13:54:04;3.60;;;2.10;;
57023;SDS011;42916;54.346;18.562;2024-01-15T13:56:31;5.00;;;1.90;;
57023;SDS011;42916;54.346;18.562;2024-01-15T13:58:59;4.20;;;2.10;;
57023;SDS011;42916;54.346;18.562;2024-01-15T14:01:26;6.20;;;2.30;;
57023;SDS011;42916;54.346;18.562;2024-01-15T14:03:54;4.70;;;1.80;;
57023;SDS011;42916;54.346;18.562;2024-01-15T14:06:21;5.80;;;2.20;;
57023;SDS011;42916;54.346;18.562;2024-01-15T14:08:47;5.30;;;1.50;;
57023;SDS011;42916;54.346;18.562;2024-01-15T14:13:43;5.90;;;2.40;;
57023;SDS011;42916;54.346;18.562;2024-01-15T14:16:10;4.60;;;1.90;;
57023;SDS011;42916;54.346;18.562;2024-01-15T14:18:38;5.10;;;1.60;;
57023;SDS011;42916;54.346;18.562;2024-01-15T14:21:05;4.50;;;1.50;;
57023;SDS011;42916;54.346;18.562;2024-01-15T14:23:32;3.90;;;1.80;;
57023;SDS011;42916;54.346;18.562;2024-01-15T14:25:58;3.10;;;1.50;;
57023;SDS011;42916;54.346;18.562;2024-01-15T14:28:25;5.40;;;1.80;;
57023;SDS011;42916;54.346;18.562;2024-01-15T14:30:52;3.20;;;1.60;;
57023;SDS011;42916;54.346;18.562;2024-01-15T14:33:19;4.40;;;2.20;;
57023;SDS011;42916;54.346;18.562;2024-01-15T14:35:47;2.50;;;1.40;;
57023;SDS011;42916;54.346;18.562;2024-01-15T14:38:13;3.40;;;2.00;;
57023;SDS011;42916;54.346;18.562;2024-01-15T14:40:40;3.40;;;1.70;;
57023;SDS011;42916;54.346;18.562;2024-01-15T14:43:07;6.20;;;1.90;;
57023;SDS011;42916;54.346;18.562;2024-01-15T14:45:34;8.00;;;2.30;;
57023;SDS011;42916;54.346;18.562;2024-01-15T14:48:01;6.00;;;2.30;;
57023;SDS011;42916;54.346;18.562;2024-01-15T14:50:28;5.10;;;2.10;;
57023;SDS011;42916;54.346;18.562;2024-01-15T14:52:55;5.60;;;2.20;;
57023;SDS011;42916;54.346;18.562;2024-01-15T14:55:22;2.30;;;1.60;;
57023;SDS011;42916;54.346;18.562;2024-01-15T14:57:49;4.70;;;2.30;;